Tinton Falls, NJ

05:13 AM EST on Jannar 25, 2015 (GMT -0500)
Red Bank | Change Station
CLOSE
Current Station
Personal Weather Stations
Location: Red Bank, NJ
Elevation: 56 ft
Nearby Weather Stations
Active Advisory: Winter Storm Watch

Elev 56 ft 40.35 °N, 74.06 °W | Updated 11 minutes ago

ċar
ċar
32.0 °F
Feels Like 32 °F
N
1.7
rih varjabbli rih from Punent il-bic

Illum
High -- | Low -- °F
--% Chance of Precip.
Yesterday
High -- | Low -- °F
Precip. -- in
7:11 AM 5:05 PM
Waxing Crescent, 31% visible
pressjoni 29.64 in
vizibilita 10.0 mili
s ċar
kesha tar-rih 32 °F
punt ta' nida 27 °F
umdita 81%
Rainfall 0.00 in
Snow Depth Not available.
UV 0 out of 12
Pollen .10 out of 12
Air Quality Not available.
Flu Activity Not available.
METAR KBLM 250955Z AUTO 26007KT 10SM CLR 01/M06 A2964 RMK AO1

More Conditions Fewer Conditions

pressjoni 29.64 in
vizibilita 10.0 mili
s ċar
kesha tar-rih 32 °F
punt ta' nida 27 °F
umdita 81%
Rainfall 0.00 in
Snow Depth Not available.
UV 0 out of 12
Pollen .10 out of 12
Air Quality Not available.
Flu Activity Not available.
METAR KBLM 250955Z AUTO 26007KT 10SM CLR 01/M06 A2964 RMK AO1

More Conditions Fewer Conditions

10-Day Weather Forecast

Almanac

Astronomy

Jan. 25, 2015 Rise Set
Actual Time
Civil Twilight
Nautical Twilight
Astronomical Twilight
Moon
Length Of Visible Light
Length of Day
Tomorrow will be .
, % of the Moon is Illuminated

Today's Extremes

State Highs State Lows

Community

WunderPhotos

Upload Photos

1,789,861 photos uploaded!

WunderBlogs® & News

Nearby

Air Quality

  Air Quality AQ Index Pollutant
Not available.

Snow Depth

Station Depth Elevation

Earthquake Activity

City Distance Mag. Time & Date
Minimum magnitude displayed is 2.5.

Coastal Water Temperatures

Post temperatura

Nearby Weather Stations